sensor_id;sensor_type;location;lat;lon;timestamp;P1;durP1;ratioP1;P2;durP2;ratioP2
39982;SDS011;25670;44.782;10.356;2023-08-06T00:00:50;3.58;;;0.50;;
39982;SDS011;25670;44.782;10.356;2023-08-06T00:03:16;0.63;;;0.32;;
39982;SDS011;25670;44.782;10.356;2023-08-06T00:05:42;2.45;;;0.45;;
39982;SDS011;25670;44.782;10.356;2023-08-06T00:08:09;5.78;;;0.40;;
39982;SDS011;25670;44.782;10.356;2023-08-06T00:10:35;0.50;;;0.47;;
39982;SDS011;25670;44.782;10.356;2023-08-06T00:13:01;0.98;;;0.30;;
39982;SDS011;25670;44.782;10.356;2023-08-06T00:15:27;1.13;;;0.50;;
39982;SDS011;25670;44.782;10.356;2023-08-06T00:17:53;0.70;;;0.50;;
39982;SDS011;25670;44.782;10.356;2023-08-06T00:20:20;5.95;;;0.40;;
39982;SDS011;25670;44.782;10.356;2023-08-06T00:22:46;0.95;;;0.45;;
39982;SDS011;25670;44.782;10.356;2023-08-06T00:25:13;1.90;;;0.40;;
39982;SDS011;25670;44.782;10.356;2023-08-06T00:27:39;2.78;;;0.45;;
39982;SDS011;25670;44.782;10.356;2023-08-06T00:30:06;0.75;;;0.30;;
39982;SDS011;25670;44.782;10.356;2023-08-06T00:32:33;1.02;;;0.30;;
39982;SDS011;25670;44.782;10.356;2023-08-06T00:34:59;0.47;;;0.40;;
39982;SDS011;25670;44.782;10.356;2023-08-06T00:37:25;0.57;;;0.35;;
39982;SDS011;25670;44.782;10.356;2023-08-06T00:39:52;0.75;;;0.30;;
39982;SDS011;25670;44.782;10.356;2023-08-06T00:42:18;0.38;;;0.35;;
39982;SDS011;25670;44.782;10.356;2023-08-06T00:44:46;0.40;;;0.40;;
39982;SDS011;25670;44.782;10.356;2023-08-06T00:47:12;0.52;;;0.38;;
39982;SDS011;25670;44.782;10.356;2023-08-06T00:49:39;0.30;;;0.30;;
39982;SDS011;25670;44.782;10.356;2023-08-06T00:52:06;6.75;;;0.50;;
39982;SDS011;25670;44.782;10.356;2023-08-06T00:54:36;0.90;;;0.40;;
39982;SDS011;25670;44.782;10.356;2023-08-06T00:57:02;0.40;;;0.40;;
39982;SDS011;25670;44.782;10.356;2023-08-06T00:59:30;0.80;;;0.40;;
39982;SDS011;25670;44.782;10.356;2023-08-06T01:01:57;3.13;;;0.40;;
39982;SDS011;25670;44.782;10.356;2023-08-06T01:04:23;5.28;;;0.60;;
39982;SDS011;25670;44.782;10.356;2023-08-06T01:07:02;3.33;;;0.38;;
39982;SDS011;25670;44.782;10.356;2023-08-06T01:09:52;0.30;;;0.30;;
39982;SDS011;25670;44.782;10.356;2023-08-06T01:12:42;0.73;;;0.38;;
39982;SDS011;25670;44.782;10.356;2023-08-06T01:15:20;1.02;;;0.40;;
39982;SDS011;25670;44.782;10.356;2023-08-06T01:17:50;0.50;;;0.43;;
39982;SDS011;25670;44.782;10.356;2023-08-06T01:20:17;0.57;;;0.20;;
39982;SDS011;25670;44.782;10.356;2023-08-06T01:22:43;0.30;;;0.30;;
39982;SDS011;25670;44.782;10.356;2023-08-06T01:25:09;1.75;;;0.50;;
39982;SDS011;25670;44.782;10.356;2023-08-06T01:27:43;0.55;;;0.30;;
39982;SDS011;25670;44.782;10.356;2023-08-06T01:30:15;0.43;;;0.22;;
39982;SDS011;25670;44.782;10.356;2023-08-06T01:32:50;2.95;;;0.50;;
39982;SDS011;25670;44.782;10.356;2023-08-06T01:35:22;0.70;;;0.50;;
39982;SDS011;25670;44.782;10.356;2023-08-06T01:37:49;3.53;;;0.73;;
39982;SDS011;25670;44.782;10.356;2023-08-06T01:40:16;0.68;;;0.68;;
39982;SDS011;25670;44.782;10.356;2023-08-06T01:42:42;2.95;;;0.50;;
39982;SDS011;25670;44.782;10.356;2023-08-06T01:45:09;0.65;;;0.60;;
39982;SDS011;25670;44.782;10.356;2023-08-06T01:47:36;0.60;;;0.60;;
39982;SDS011;25670;44.782;10.356;2023-08-06T01:50:02;1.17;;;0.85;;
39982;SDS011;25670;44.782;10.356;2023-08-06T01:52:29;1.48;;;0.70;;
39982;SDS011;25670;44.782;10.356;2023-08-06T01:54:55;0.98;;;0.60;;
39982;SDS011;25670;44.782;10.356;2023-08-06T01:57:21;0.70;;;0.70;;
39982;SDS011;25670;44.782;10.356;2023-08-06T01:59:48;1.92;;;0.70;;
39982;SDS011;25670;44.782;10.356;2023-08-06T02:02:15;5.18;;;0.90;;
39982;SDS011;25670;44.782;10.356;2023-08-06T02:04:41;0.95;;;0.68;;
39982;SDS011;25670;44.782;10.356;2023-08-06T02:07:07;0.68;;;0.38;;
39982;SDS011;25670;44.782;10.356;2023-08-06T02:09:33;0.80;;;0.43;;
39982;SDS011;25670;44.782;10.356;2023-08-06T02:12:01;2.95;;;0.57;;
39982;SDS011;25670;44.782;10.356;2023-08-06T02:14:28;0.57;;;0.50;;
39982;SDS011;25670;44.782;10.356;2023-08-06T02:16:54;0.82;;;0.40;;
39982;SDS011;25670;44.782;10.356;2023-08-06T02:19:20;0.65;;;0.60;;
39982;SDS011;25670;44.782;10.356;2023-08-06T02:21:47;1.83;;;0.60;;
39982;SDS011;25670;44.782;10.356;2023-08-06T02:24:13;3.00;;;0.70;;
39982;SDS011;25670;44.782;10.356;2023-08-06T02:26:39;1.05;;;0.60;;
39982;SDS011;25670;44.782;10.356;2023-08-06T02:29:05;0.57;;;0.55;;
39982;SDS011;25670;44.782;10.356;2023-08-06T02:31:32;3.50;;;0.50;;
39982;SDS011;25670;44.782;10.356;2023-08-06T02:33:58;3.03;;;0.50;;
39982;SDS011;25670;44.782;10.356;2023-08-06T02:36:25;2.50;;;0.60;;
39982;SDS011;25670;44.782;10.356;2023-08-06T02:38:54;0.75;;;0.60;;
39982;SDS011;25670;44.782;10.356;2023-08-06T02:41:22;0.50;;;0.50;;
39982;SDS011;25670;44.782;10.356;2023-08-06T02:43:48;0.95;;;0.77;;
39982;SDS011;25670;44.782;10.356;2023-08-06T02:46:14;0.70;;;0.70;;
39982;SDS011;25670;44.782;10.356;2023-08-06T02:48:41;3.60;;;0.70;;
39982;SDS011;25670;44.782;10.356;2023-08-06T02:51:07;2.50;;;0.95;;
39982;SDS011;25670;44.782;10.356;2023-08-06T02:53:33;2.10;;;1.02;;
39982;SDS011;25670;44.782;10.356;2023-08-06T02:56:04;1.30;;;1.15;;
39982;SDS011;25670;44.782;10.356;2023-08-06T02:58:42;0.80;;;0.80;;
39982;SDS011;25670;44.782;10.356;2023-08-06T03:01:21;1.27;;;0.90;;
39982;SDS011;25670;44.782;10.356;2023-08-06T03:03:55;2.45;;;1.20;;
39982;SDS011;25670;44.782;10.356;2023-08-06T03:06:28;1.50;;;1.40;;
39982;SDS011;25670;44.782;10.356;2023-08-06T03:08:57;0.88;;;0.88;;
39982;SDS011;25670;44.782;10.356;2023-08-06T03:11:25;1.20;;;0.80;;
39982;SDS011;25670;44.782;10.356;2023-08-06T03:13:56;1.13;;;1.02;;
39982;SDS011;25670;44.782;10.356;2023-08-06T03:16:22;1.00;;;0.90;;
39982;SDS011;25670;44.782;10.356;2023-08-06T03:18:49;2.83;;;0.90;;
39982;SDS011;25670;44.782;10.356;2023-08-06T03:21:16;1.60;;;0.90;;
39982;SDS011;25670;44.782;10.356;2023-08-06T03:23:42;4.20;;;0.98;;
39982;SDS011;25670;44.782;10.356;2023-08-06T03:26:09;1.70;;;0.80;;
39982;SDS011;25670;44.782;10.356;2023-08-06T03:28:36;0.82;;;0.82;;
39982;SDS011;25670;44.782;10.356;2023-08-06T03:31:04;1.45;;;1.17;;
39982;SDS011;25670;44.782;10.356;2023-08-06T03:33:39;1.25;;;0.80;;
39982;SDS011;25670;44.782;10.356;2023-08-06T03:36:10;2.05;;;0.90;;
39982;SDS011;25670;44.782;10.356;2023-08-06T03:38:36;1.20;;;0.98;;
39982;SDS011;25670;44.782;10.356;2023-08-06T03:41:06;2.50;;;1.00;;
39982;SDS011;25670;44.782;10.356;2023-08-06T03:43:32;1.55;;;1.25;;
39982;SDS011;25670;44.782;10.356;2023-08-06T03:46:00;1.27;;;1.17;;
39982;SDS011;25670;44.782;10.356;2023-08-06T03:48:28;1.60;;;1.50;;
39982;SDS011;25670;44.782;10.356;2023-08-06T03:50:55;1.73;;;1.63;;
39982;SDS011;25670;44.782;10.356;2023-08-06T03:53:25;1.40;;;1.30;;
39982;SDS011;25670;44.782;10.356;2023-08-06T03:55:51;3.03;;;1.45;;
39982;SDS011;25670;44.782;10.356;2023-08-06T03:58:17;2.92;;;1.85;;
39982;SDS011;25670;44.782;10.356;2023-08-06T04:00:44;1.77;;;1.67;;
39982;SDS011;25670;44.782;10.356;2023-08-06T04:03:10;1.50;;;1.40;;
39982;SDS011;25670;44.782;10.356;2023-08-06T04:05:37;1.25;;;1.15;;
39982;SDS011;25670;44.782;10.356;2023-08-06T04:08:03;3.33;;;1.50;;
39982;SDS011;25670;44.782;10.356;2023-08-06T04:10:30;1.23;;;1.23;;
39982;SDS011;25670;44.782;10.356;2023-08-06T04:12:56;2.03;;;1.83;;
39982;SDS011;25670;44.782;10.356;2023-08-06T04:15:23;1.75;;;1.65;;
39982;SDS011;25670;44.782;10.356;2023-08-06T04:17:49;2.75;;;1.40;;
39982;SDS011;25670;44.782;10.356;2023-08-06T04:20:16;2.28;;;1.70;;
39982;SDS011;25670;44.782;10.356;2023-08-06T04:22:42;1.58;;;1.48;;
39982;SDS011;25670;44.782;10.356;2023-08-06T04:25:09;1.70;;;1.60;;
39982;SDS011;25670;44.782;10.356;2023-08-06T04:27:35;1.70;;;1.60;;
39982;SDS011;25670;44.782;10.356;2023-08-06T04:30:07;2.08;;;1.77;;
39982;SDS011;25670;44.782;10.356;2023-08-06T04:32:35;1.67;;;1.58;;
39982;SDS011;25670;44.782;10.356;2023-08-06T04:35:01;3.97;;;1.58;;
39982;SDS011;25670;44.782;10.356;2023-08-06T04:37:28;1.25;;;1.25;;
39982;SDS011;25670;44.782;10.356;2023-08-06T04:39:55;1.08;;;1.08;;
39982;SDS011;25670;44.782;10.356;2023-08-06T04:42:22;1.60;;;1.15;;
39982;SDS011;25670;44.782;10.356;2023-08-06T04:44:49;4.18;;;1.30;;
39982;SDS011;25670;44.782;10.356;2023-08-06T04:47:16;1.20;;;1.20;;
39982;SDS011;25670;44.782;10.356;2023-08-06T04:49:42;2.97;;;1.10;;
39982;SDS011;25670;44.782;10.356;2023-08-06T04:52:09;0.63;;;0.63;;
39982;SDS011;25670;44.782;10.356;2023-08-06T04:54:35;3.17;;;2.08;;
39982;SDS011;25670;44.782;10.356;2023-08-06T04:57:01;2.30;;;0.57;;
39982;SDS011;25670;44.782;10.356;2023-08-06T04:59:28;0.80;;;0.40;;
39982;SDS011;25670;44.782;10.356;2023-08-06T05:01:54;0.50;;;0.50;;
39982;SDS011;25670;44.782;10.356;2023-08-06T05:04:20;1.27;;;0.30;;
39982;SDS011;25670;44.782;10.356;2023-08-06T05:06:47;0.57;;;0.45;;
39982;SDS011;25670;44.782;10.356;2023-08-06T05:09:14;0.65;;;0.30;;
39982;SDS011;25670;44.782;10.356;2023-08-06T05:11:40;0.30;;;0.20;;
39982;SDS011;25670;44.782;10.356;2023-08-06T05:14:06;0.50;;;0.50;;
39982;SDS011;25670;44.782;10.356;2023-08-06T05:16:32;0.65;;;0.32;;
39982;SDS011;25670;44.782;10.356;2023-08-06T05:18:59;0.30;;;0.20;;
39982;SDS011;25670;44.782;10.356;2023-08-06T05:21:25;0.45;;;0.28;;
39982;SDS011;25670;44.782;10.356;2023-08-06T05:23:52;1.00;;;0.45;;
39982;SDS011;25670;44.782;10.356;2023-08-06T05:26:18;0.50;;;0.20;;
39982;SDS011;25670;44.782;10.356;2023-08-06T05:28:45;0.57;;;0.25;;
39982;SDS011;25670;44.782;10.356;2023-08-06T05:31:11;0.30;;;0.30;;
39982;SDS011;25670;44.782;10.356;2023-08-06T05:33:38;0.75;;;0.30;;
39982;SDS011;25670;44.782;10.356;2023-08-06T05:36:04;0.40;;;0.22;;
39982;SDS011;25670;44.782;10.356;2023-08-06T05:38:31;0.90;;;0.40;;
39982;SDS011;25670;44.782;10.356;2023-08-06T05:40:57;1.48;;;0.17;;
39982;SDS011;25670;44.782;10.356;2023-08-06T05:43:23;3.03;;;0.50;;
39982;SDS011;25670;44.782;10.356;2023-08-06T05:45:50;3.33;;;0.32;;
39982;SDS011;25670;44.782;10.356;2023-08-06T05:48:16;1.55;;;0.55;;
39982;SDS011;25670;44.782;10.356;2023-08-06T05:50:43;10.40;;;0.50;;
39982;SDS011;25670;44.782;10.356;2023-08-06T05:53:09;5.07;;;0.52;;
39982;SDS011;25670;44.782;10.356;2023-08-06T05:55:36;0.43;;;0.25;;
39982;SDS011;25670;44.782;10.356;2023-08-06T05:58:03;3.72;;;0.40;;
39982;SDS011;25670;44.782;10.356;2023-08-06T06:00:30;1.92;;;0.50;;
39982;SDS011;25670;44.782;10.356;2023-08-06T06:02:56;1.48;;;0.38;;
39982;SDS011;25670;44.782;10.356;2023-08-06T06:05:23;1.10;;;0.50;;
39982;SDS011;25670;44.782;10.356;2023-08-06T06:07:49;1.00;;;0.60;;
39982;SDS011;25670;44.782;10.356;2023-08-06T06:10:15;2.60;;;0.75;;
39982;SDS011;25670;44.782;10.356;2023-08-06T06:12:42;1.33;;;0.80;;
39982;SDS011;25670;44.782;10.356;2023-08-06T06:15:08;3.47;;;0.80;;
39982;SDS011;25670;44.782;10.356;2023-08-06T06:17:35;3.03;;;1.65;;
39982;SDS011;25670;44.782;10.356;2023-08-06T06:20:01;8.00;;;1.02;;
39982;SDS011;25670;44.782;10.356;2023-08-06T06:22:29;9.13;;;1.38;;
39982;SDS011;25670;44.782;10.356;2023-08-06T06:24:56;3.05;;;1.13;;
39982;SDS011;25670;44.782;10.356;2023-08-06T06:27:22;2.03;;;0.93;;
39982;SDS011;25670;44.782;10.356;2023-08-06T06:29:48;2.90;;;0.95;;
39982;SDS011;25670;44.782;10.356;2023-08-06T06:32:15;5.57;;;0.85;;
39982;SDS011;25670;44.782;10.356;2023-08-06T06:34:41;1.52;;;0.70;;
39982;SDS011;25670;44.782;10.356;2023-08-06T06:37:08;8.95;;;0.75;;
39982;SDS011;25670;44.782;10.356;2023-08-06T06:39:34;0.85;;;0.50;;
39982;SDS011;25670;44.782;10.356;2023-08-06T06:42:01;2.70;;;0.50;;
39982;SDS011;25670;44.782;10.356;2023-08-06T06:44:35;2.45;;;0.90;;
39982;SDS011;25670;44.782;10.356;2023-08-06T06:47:01;3.88;;;0.57;;
39982;SDS011;25670;44.782;10.356;2023-08-06T06:49:28;1.75;;;0.40;;
39982;SDS011;25670;44.782;10.356;2023-08-06T06:51:54;1.13;;;0.68;;
39982;SDS011;25670;44.782;10.356;2023-08-06T06:54:20;2.95;;;0.57;;
39982;SDS011;25670;44.782;10.356;2023-08-06T06:56:47;3.10;;;0.70;;
39982;SDS011;25670;44.782;10.356;2023-08-06T06:59:13;3.42;;;0.88;;
39982;SDS011;25670;44.782;10.356;2023-08-06T07:01:39;11.10;;;0.98;;
39982;SDS011;25670;44.782;10.356;2023-08-06T07:04:06;2.25;;;0.90;;
39982;SDS011;25670;44.782;10.356;2023-08-06T07:06:33;1.83;;;0.80;;
39982;SDS011;25670;44.782;10.356;2023-08-06T07:08:59;5.65;;;1.25;;
39982;SDS011;25670;44.782;10.356;2023-08-06T07:11:25;1.42;;;0.68;;
39982;SDS011;25670;44.782;10.356;2023-08-06T07:13:58;2.60;;;0.80;;
39982;SDS011;25670;44.782;10.356;2023-08-06T07:16:25;3.70;;;1.08;;
39982;SDS011;25670;44.782;10.356;2023-08-06T07:18:51;0.88;;;0.55;;
39982;SDS011;25670;44.782;10.356;2023-08-06T07:21:19;1.48;;;0.50;;
39982;SDS011;25670;44.782;10.356;2023-08-06T07:23:45;0.90;;;0.50;;
39982;SDS011;25670;44.782;10.356;2023-08-06T07:26:11;2.80;;;0.52;;
39982;SDS011;25670;44.782;10.356;2023-08-06T07:28:38;2.85;;;0.60;;
39982;SDS011;25670;44.782;10.356;2023-08-06T07:31:06;1.65;;;0.75;;
39982;SDS011;25670;44.782;10.356;2023-08-06T07:33:33;2.33;;;0.70;;
39982;SDS011;25670;44.782;10.356;2023-08-06T07:35:59;2.60;;;0.60;;
39982;SDS011;25670;44.782;10.356;2023-08-06T07:38:25;2.38;;;0.52;;
39982;SDS011;25670;44.782;10.356;2023-08-06T07:40:53;2.25;;;0.95;;
39982;SDS011;25670;44.782;10.356;2023-08-06T07:43:19;1.30;;;0.50;;
39982;SDS011;25670;44.782;10.356;2023-08-06T07:45:45;1.50;;;0.57;;
39982;SDS011;25670;44.782;10.356;2023-08-06T07:48:11;1.23;;;0.60;;
39982;SDS011;25670;44.782;10.356;2023-08-06T07:50:38;1.15;;;0.70;;
39982;SDS011;25670;44.782;10.356;2023-08-06T07:53:04;2.10;;;0.73;;
39982;SDS011;25670;44.782;10.356;2023-08-06T07:55:30;2.35;;;0.45;;
39982;SDS011;25670;44.782;10.356;2023-08-06T07:57:56;2.20;;;0.45;;
39982;SDS011;25670;44.782;10.356;2023-08-06T08:00:23;0.75;;;0.30;;
39982;SDS011;25670;44.782;10.356;2023-08-06T08:02:50;1.38;;;0.50;;
39982;SDS011;25670;44.782;10.356;2023-08-06T08:05:16;2.28;;;0.40;;
39982;SDS011;25670;44.782;10.356;2023-08-06T08:07:42;0.70;;;0.30;;
39982;SDS011;25670;44.782;10.356;2023-08-06T08:10:09;1.38;;;0.75;;
39982;SDS011;25670;44.782;10.356;2023-08-06T08:12:36;1.80;;;0.40;;
39982;SDS011;25670;44.782;10.356;2023-08-06T08:15:02;0.40;;;0.40;;
39982;SDS011;25670;44.782;10.356;2023-08-06T08:17:29;5.97;;;0.93;;
39982;SDS011;25670;44.782;10.356;2023-08-06T08:19:55;0.28;;;0.25;;
39982;SDS011;25670;44.782;10.356;2023-08-06T08:22:21;0.90;;;0.40;;
39982;SDS011;25670;44.782;10.356;2023-08-06T08:24:48;1.35;;;0.50;;
39982;SDS011;25670;44.782;10.356;2023-08-06T08:27:14;0.77;;;0.38;;
39982;SDS011;25670;44.782;10.356;2023-08-06T08:29:41;2.20;;;0.40;;
39982;SDS011;25670;44.782;10.356;2023-08-06T08:32:07;0.50;;;0.32;;
39982;SDS011;25670;44.782;10.356;2023-08-06T08:34:33;1.58;;;0.88;;
39982;SDS011;25670;44.782;10.356;2023-08-06T08:37:00;0.93;;;0.50;;
39982;SDS011;25670;44.782;10.356;2023-08-06T08:39:26;0.95;;;0.40;;
39982;SDS011;25670;44.782;10.356;2023-08-06T08:41:52;2.08;;;0.60;;
39982;SDS011;25670;44.782;10.356;2023-08-06T08:44:18;1.00;;;0.52;;
39982;SDS011;25670;44.782;10.356;2023-08-06T08:46:45;0.50;;;0.50;;
39982;SDS011;25670;44.782;10.356;2023-08-06T08:49:13;1.75;;;0.68;;
39982;SDS011;25670;44.782;10.356;2023-08-06T08:51:39;2.10;;;0.90;;
39982;SDS011;25670;44.782;10.356;2023-08-06T08:54:07;2.33;;;0.32;;
39982;SDS011;25670;44.782;10.356;2023-08-06T08:56:33;2.13;;;0.57;;
39982;SDS011;25670;44.782;10.356;2023-08-06T08:58:59;0.55;;;0.30;;
39982;SDS011;25670;44.782;10.356;2023-08-06T09:01:26;2.53;;;0.68;;
39982;SDS011;25670;44.782;10.356;2023-08-06T09:03:54;1.42;;;0.40;;
39982;SDS011;25670;44.782;10.356;2023-08-06T09:06:21;1.48;;;0.20;;
39982;SDS011;25670;44.782;10.356;2023-08-06T09:09:08;1.00;;;0.60;;
39982;SDS011;25670;44.782;10.356;2023-08-06T09:11:42;1.50;;;0.40;;
39982;SDS011;25670;44.782;10.356;2023-08-06T09:14:10;2.80;;;0.60;;
39982;SDS011;25670;44.782;10.356;2023-08-06T09:16:37;0.85;;;0.50;;
39982;SDS011;25670;44.782;10.356;2023-08-06T09:19:09;4.28;;;1.55;;
39982;SDS011;25670;44.782;10.356;2023-08-06T09:21:43;1.27;;;0.55;;
39982;SDS011;25670;44.782;10.356;2023-08-06T09:24:10;3.55;;;1.13;;
39982;SDS011;25670;44.782;10.356;2023-08-06T09:26:38;4.57;;;0.93;;
39982;SDS011;25670;44.782;10.356;2023-08-06T09:29:06;1.67;;;0.55;;
39982;SDS011;25670;44.782;10.356;2023-08-06T09:31:40;1.58;;;0.47;;
39982;SDS011;25670;44.782;10.356;2023-08-06T09:34:16;0.40;;;0.40;;
39982;SDS011;25670;44.782;10.356;2023-08-06T09:36:53;3.03;;;0.43;;
39982;SDS011;25670;44.782;10.356;2023-08-06T09:39:29;0.80;;;0.40;;
39982;SDS011;25670;44.782;10.356;2023-08-06T09:41:57;0.68;;;0.43;;
39982;SDS011;25670;44.782;10.356;2023-08-06T09:44:27;0.52;;;0.40;;
39982;SDS011;25670;44.782;10.356;2023-08-06T09:46:56;0.40;;;0.40;;
39982;SDS011;25670;44.782;10.356;2023-08-06T09:49:41;1.00;;;0.43;;
39982;SDS011;25670;44.782;10.356;2023-08-06T09:52:12;0.63;;;0.50;;
39982;SDS011;25670;44.782;10.356;2023-08-06T09:54:39;0.30;;;0.30;;
39982;SDS011;25670;44.782;10.356;2023-08-06T09:57:05;0.20;;;0.20;;
39982;SDS011;25670;44.782;10.356;2023-08-06T09:59:32;0.50;;;0.50;;
39982;SDS011;25670;44.782;10.356;2023-08-06T10:02:00;0.57;;;0.40;;
39982;SDS011;25670;44.782;10.356;2023-08-06T10:04:28;1.08;;;0.50;;
39982;SDS011;25670;44.782;10.356;2023-08-06T10:06:55;0.30;;;0.25;;
39982;SDS011;25670;44.782;10.356;2023-08-06T10:09:21;0.85;;;0.60;;
39982;SDS011;25670;44.782;10.356;2023-08-06T10:11:50;0.95;;;0.52;;
39982;SDS011;25670;44.782;10.356;2023-08-06T10:14:23;0.40;;;0.30;;
39982;SDS011;25670;44.782;10.356;2023-08-06T10:16:52;0.47;;;0.47;;
39982;SDS011;25670;44.782;10.356;2023-08-06T10:19:20;0.40;;;0.40;;
39982;SDS011;25670;44.782;10.356;2023-08-06T10:22:07;2.85;;;0.40;;
39982;SDS011;25670;44.782;10.356;2023-08-06T10:24:47;0.70;;;0.70;;
39982;SDS011;25670;44.782;10.356;2023-08-06T10:27:21;0.43;;;0.30;;
39982;SDS011;25670;44.782;10.356;2023-08-06T10:29:55;0.30;;;0.30;;
39982;SDS011;25670;44.782;10.356;2023-08-06T10:32:21;0.50;;;0.40;;
39982;SDS011;25670;44.782;10.356;2023-08-06T10:35:09;1.80;;;0.55;;
39982;SDS011;25670;44.782;10.356;2023-08-06T10:37:53;0.32;;;0.30;;
39982;SDS011;25670;44.782;10.356;2023-08-06T10:40:22;0.75;;;0.52;;
39982;SDS011;25670;44.782;10.356;2023-08-06T10:42:49;0.40;;;0.30;;
39982;SDS011;25670;44.782;10.356;2023-08-06T10:45:18;0.55;;;0.55;;
39982;SDS011;25670;44.782;10.356;2023-08-06T10:47:45;0.40;;;0.30;;
39982;SDS011;25670;44.782;10.356;2023-08-06T10:50:13;0.35;;;0.35;;
39982;SDS011;25670;44.782;10.356;2023-08-06T10:55:10;0.50;;;0.40;;
39982;SDS011;25670;44.782;10.356;2023-08-06T10:57:36;0.77;;;0.45;;
39982;SDS011;25670;44.782;10.356;2023-08-06T11:00:06;2.50;;;0.50;;
39982;SDS011;25670;44.782;10.356;2023-08-06T11:02:34;1.85;;;0.52;;
39982;SDS011;25670;44.782;10.356;2023-08-06T11:05:07;2.35;;;0.40;;
39982;SDS011;25670;44.782;10.356;2023-08-06T11:07:35;0.35;;;0.35;;
39982;SDS011;25670;44.782;10.356;2023-08-06T11:10:06;0.50;;;0.50;;
39982;SDS011;25670;44.782;10.356;2023-08-06T11:12:34;5.18;;;0.40;;
39982;SDS011;25670;44.782;10.356;2023-08-06T11:15:00;0.65;;;0.32;;
39982;SDS011;25670;44.782;10.356;2023-08-06T11:17:29;0.40;;;0.40;;
39982;SDS011;25670;44.782;10.356;2023-08-06T11:19:59;0.30;;;0.30;;
39982;SDS011;25670;44.782;10.356;2023-08-06T11:22:26;0.93;;;0.40;;
39982;SDS011;25670;44.782;10.356;2023-08-06T11:24:52;2.35;;;0.38;;
39982;SDS011;25670;44.782;10.356;2023-08-06T11:27:19;1.95;;;0.50;;
39982;SDS011;25670;44.782;10.356;2023-08-06T11:29:46;0.50;;;0.50;;
39982;SDS011;25670;44.782;10.356;2023-08-06T11:32:12;0.60;;;0.57;;
39982;SDS011;25670;44.782;10.356;2023-08-06T11:34:39;0.80;;;0.40;;
39982;SDS011;25670;44.782;10.356;2023-08-06T11:37:06;3.63;;;0.38;;
39982;SDS011;25670;44.782;10.356;2023-08-06T11:41:59;0.60;;;0.60;;
39982;SDS011;25670;44.782;10.356;2023-08-06T11:44:29;3.30;;;0.50;;
39982;SDS011;25670;44.782;10.356;2023-08-06T11:46:58;0.50;;;0.40;;
39982;SDS011;25670;44.782;10.356;2023-08-06T11:49:48;3.55;;;0.75;;
39982;SDS011;25670;44.782;10.356;2023-08-06T11:54:45;0.70;;;0.50;;
39982;SDS011;25670;44.782;10.356;2023-08-06T11:57:34;1.65;;;0.40;;
39982;SDS011;25670;44.782;10.356;2023-08-06T12:00:07;0.47;;;0.30;;
39982;SDS011;25670;44.782;10.356;2023-08-06T12:02:42;0.40;;;0.35;;
39982;SDS011;25670;44.782;10.356;2023-08-06T12:07:39;0.75;;;0.40;;
39982;SDS011;25670;44.782;10.356;2023-08-06T12:10:07;1.95;;;0.40;;
39982;SDS011;25670;44.782;10.356;2023-08-06T12:12:34;0.93;;;0.32;;
39982;SDS011;25670;44.782;10.356;2023-08-06T12:15:01;0.57;;;0.40;;
39982;SDS011;25670;44.782;10.356;2023-08-06T12:17:28;0.40;;;0.40;;
39982;SDS011;25670;44.782;10.356;2023-08-06T12:19:55;10.35;;;0.70;;
39982;SDS011;25670;44.782;10.356;2023-08-06T12:22:21;1.25;;;0.65;;
39982;SDS011;25670;44.782;10.356;2023-08-06T12:24:47;0.85;;;0.80;;
39982;SDS011;25670;44.782;10.356;2023-08-06T12:27:13;0.60;;;0.60;;
39982;SDS011;25670;44.782;10.356;2023-08-06T12:29:45;0.45;;;0.43;;
39982;SDS011;25670;44.782;10.356;2023-08-06T12:32:13;0.55;;;0.40;;
39982;SDS011;25670;44.782;10.356;2023-08-06T12:34:40;0.43;;;0.40;;
39982;SDS011;25670;44.782;10.356;2023-08-06T12:37:08;0.30;;;0.30;;
39982;SDS011;25670;44.782;10.356;2023-08-06T12:39:37;0.77;;;0.55;;
39982;SDS011;25670;44.782;10.356;2023-08-06T12:42:04;3.33;;;0.50;;
39982;SDS011;25670;44.782;10.356;2023-08-06T12:44:32;0.38;;;0.35;;
39982;SDS011;25670;44.782;10.356;2023-08-06T12:46:58;0.65;;;0.43;;
39982;SDS011;25670;44.782;10.356;2023-08-06T12:49:25;0.73;;;0.50;;
39982;SDS011;25670;44.782;10.356;2023-08-06T12:51:52;0.57;;;0.57;;
39982;SDS011;25670;44.782;10.356;2023-08-06T12:54:22;0.50;;;0.50;;
39982;SDS011;25670;44.782;10.356;2023-08-06T12:56:48;0.40;;;0.40;;
39982;SDS011;25670;44.782;10.356;2023-08-06T12:59:16;0.40;;;0.40;;
39982;SDS011;25670;44.782;10.356;2023-08-06T13:01:43;0.77;;;0.40;;
39982;SDS011;25670;44.782;10.356;2023-08-06T13:04:10;0.55;;;0.55;;
39982;SDS011;25670;44.782;10.356;2023-08-06T13:06:37;0.40;;;0.40;;
39982;SDS011;25670;44.782;10.356;2023-08-06T13:09:05;0.82;;;0.20;;
39982;SDS011;25670;44.782;10.356;2023-08-06T13:11:32;1.23;;;0.40;;
39982;SDS011;25670;44.782;10.356;2023-08-06T13:14:03;3.10;;;0.70;;
39982;SDS011;25670;44.782;10.356;2023-08-06T13:16:35;1.65;;;0.40;;
39982;SDS011;25670;44.782;10.356;2023-08-06T13:19:02;0.52;;;0.52;;
39982;SDS011;25670;44.782;10.356;2023-08-06T13:21:33;0.52;;;0.52;;
39982;SDS011;25670;44.782;10.356;2023-08-06T13:24:01;0.55;;;0.55;;
39982;SDS011;25670;44.782;10.356;2023-08-06T13:26:29;1.15;;;0.52;;
39982;SDS011;25670;44.782;10.356;2023-08-06T13:28:58;1.10;;;0.60;;
39982;SDS011;25670;44.782;10.356;2023-08-06T13:31:25;0.60;;;0.60;;
39982;SDS011;25670;44.782;10.356;2023-08-06T13:33:52;1.42;;;0.65;;
39982;SDS011;25670;44.782;10.356;2023-08-06T13:36:21;1.85;;;0.50;;
39982;SDS011;25670;44.782;10.356;2023-08-06T13:38:48;1.92;;;0.60;;
39982;SDS011;25670;44.782;10.356;2023-08-06T13:41:15;1.27;;;0.40;;
39982;SDS011;25670;44.782;10.356;2023-08-06T13:43:42;1.70;;;0.47;;
39982;SDS011;25670;44.782;10.356;2023-08-06T13:46:09;0.68;;;0.40;;
39982;SDS011;25670;44.782;10.356;2023-08-06T13:48:42;0.65;;;0.57;;
39982;SDS011;25670;44.782;10.356;2023-08-06T13:51:09;0.70;;;0.63;;
39982;SDS011;25670;44.782;10.356;2023-08-06T13:53:39;3.67;;;0.63;;
39982;SDS011;25670;44.782;10.356;2023-08-06T13:56:06;1.17;;;0.50;;
39982;SDS011;25670;44.782;10.356;2023-08-06T13:58:35;0.60;;;0.57;;
39982;SDS011;25670;44.782;10.356;2023-08-06T14:01:01;0.70;;;0.60;;
39982;SDS011;25670;44.782;10.356;2023-08-06T14:03:27;0.75;;;0.55;;
39982;SDS011;25670;44.782;10.356;2023-08-06T14:05:54;0.40;;;0.40;;
39982;SDS011;25670;44.782;10.356;2023-08-06T14:08:24;0.73;;;0.43;;
39982;SDS011;25670;44.782;10.356;2023-08-06T14:10:51;5.97;;;0.93;;
39982;SDS011;25670;44.782;10.356;2023-08-06T14:13:17;0.30;;;0.30;;
39982;SDS011;25670;44.782;10.356;2023-08-06T14:15:44;0.65;;;0.60;;
39982;SDS011;25670;44.782;10.356;2023-08-06T14:18:15;0.95;;;0.60;;
39982;SDS011;25670;44.782;10.356;2023-08-06T14:20:42;0.77;;;0.65;;
39982;SDS011;25670;44.782;10.356;2023-08-06T14:23:08;0.60;;;0.50;;
39982;SDS011;25670;44.782;10.356;2023-08-06T14:25:35;0.60;;;0.57;;
39982;SDS011;25670;44.782;10.356;2023-08-06T14:28:01;1.80;;;0.60;;
39982;SDS011;25670;44.782;10.356;2023-08-06T14:30:28;0.43;;;0.43;;
39982;SDS011;25670;44.782;10.356;2023-08-06T14:32:54;0.50;;;0.50;;
39982;SDS011;25670;44.782;10.356;2023-08-06T14:35:20;0.55;;;0.50;;
39982;SDS011;25670;44.782;10.356;2023-08-06T14:37:46;0.50;;;0.50;;
39982;SDS011;25670;44.782;10.356;2023-08-06T14:40:12;0.63;;;0.63;;
39982;SDS011;25670;44.782;10.356;2023-08-06T14:42:39;1.38;;;0.70;;
39982;SDS011;25670;44.782;10.356;2023-08-06T14:45:05;2.38;;;0.65;;
39982;SDS011;25670;44.782;10.356;2023-08-06T14:47:32;0.82;;;0.45;;